createdAt,value
2017-08-07T00:00:58.956Z,65.61
2017-08-07T00:03:28.540Z,65.20
2017-08-07T00:05:58.084Z,65.85
2017-08-07T00:08:27.629Z,65.43
2017-08-07T00:10:57.182Z,65.84
2017-08-07T00:13:26.709Z,66.32
2017-08-07T00:15:56.264Z,66.56
2017-08-07T00:18:26.615Z,65.85
2017-08-07T00:20:56.135Z,66.18
2017-08-07T00:23:26.529Z,66.68
2017-08-07T00:25:56.813Z,65.86
2017-08-07T00:28:26.397Z,65.46
2017-08-07T00:30:55.926Z,66.10
2017-08-07T00:33:25.478Z,66.68
2017-08-07T00:35:55.029Z,66.20
2017-08-07T00:38:24.554Z,66.90
2017-08-07T00:40:54.073Z,66.95
2017-08-07T00:43:23.655Z,66.84
2017-08-07T00:45:53.212Z,66.96
2017-08-07T00:48:23.106Z,67.41
2017-08-07T00:50:53.434Z,67.58
2017-08-07T00:53:23.797Z,67.75
2017-08-07T00:55:53.336Z,67.95
2017-08-07T00:58:22.913Z,67.57
2017-08-07T01:00:52.483Z,67.71
2017-08-07T01:03:22.432Z,67.62
2017-08-07T01:05:51.676Z,67.13
2017-08-07T01:08:21.227Z,67.67
2017-08-07T01:10:50.767Z,67.62
2017-08-07T01:13:20.303Z,67.39
2017-08-07T01:15:50.636Z,67.48
2017-08-07T01:18:20.911Z,67.44
2017-08-07T01:20:50.685Z,67.03
2017-08-07T01:23:21.046Z,66.47
2017-08-07T01:25:50.600Z,66.62
2017-08-07T01:28:20.907Z,66.58
2017-08-07T01:30:50.474Z,66.38
2017-08-07T01:33:20.964Z,66.72
2017-08-07T01:35:54.705Z,67.15
2017-08-07T01:38:24.240Z,67.52
2017-08-07T01:40:55.269Z,67.28
2017-08-07T01:43:25.342Z,67.64
2017-08-07T01:45:57.444Z,67.43
2017-08-07T01:48:26.313Z,67.52
2017-08-07T01:50:57.423Z,66.74
2017-08-07T01:53:27.699Z,67.29
2017-08-07T01:56:00.701Z,67.36
2017-08-07T01:58:30.296Z,67.33
2017-08-07T02:00:59.191Z,67.19
2017-08-07T02:03:28.381Z,67.29
2017-08-07T02:05:57.597Z,67.18
2017-08-07T02:08:27.155Z,67.27
2017-08-07T02:10:57.498Z,67.56
2017-08-07T02:13:27.144Z,67.77
2017-08-07T02:15:56.708Z,67.83
2017-08-07T02:18:26.264Z,67.57
2017-08-07T02:20:55.480Z,67.78
2017-08-07T02:23:24.997Z,67.59
2017-08-07T02:25:54.541Z,67.18
2017-08-07T02:28:24.092Z,66.93
2017-08-07T02:30:53.707Z,67.05
2017-08-07T02:33:25.094Z,67.04
2017-08-07T02:35:55.512Z,67.51
2017-08-07T02:38:25.847Z,67.63
2017-08-07T02:40:55.372Z,67.47
2017-08-07T02:43:24.717Z,67.46
2017-08-07T02:45:54.256Z,67.43
2017-08-07T02:48:23.813Z,67.42
2017-08-07T02:50:53.379Z,67.52
2017-08-07T02:53:22.930Z,67.73
2017-08-07T02:55:55.124Z,67.62
2017-08-07T02:58:26.658Z,67.08
2017-08-07T03:00:56.988Z,67.61
2017-08-07T03:03:29.343Z,67.52
2017-08-07T03:05:58.883Z,67.35
2017-08-07T03:08:29.223Z,67.91
2017-08-07T03:10:59.514Z,67.08
2017-08-07T03:13:29.083Z,66.50
2017-08-07T03:15:58.684Z,66.27
2017-08-07T03:18:28.213Z,66.38
2017-08-07T03:20:57.773Z,65.91
2017-08-07T03:23:28.065Z,65.79
2017-08-07T03:25:57.629Z,66.37
2017-08-07T03:28:27.152Z,66.32
2017-08-07T03:30:56.703Z,66.90
2017-08-07T03:33:28.998Z,66.92
2017-08-07T03:35:58.513Z,67.03
2017-08-07T03:38:28.045Z,67.29
2017-08-07T03:40:57.636Z,67.34
2017-08-07T03:43:27.186Z,67.00
2017-08-07T03:45:56.757Z,67.43
2017-08-07T03:48:26.309Z,66.38
2017-08-07T03:50:55.924Z,66.61
2017-08-07T03:53:26.442Z,66.67
2017-08-07T03:55:55.980Z,66.19
2017-08-07T03:58:25.529Z,66.00
2017-08-07T04:00:55.088Z,66.18
2017-08-07T04:03:25.409Z,66.97
2017-08-07T04:05:55.752Z,65.70
2017-08-07T04:08:25.288Z,65.50
2017-08-07T04:10:54.867Z,65.36
2017-08-07T04:13:24.391Z,65.40
2017-08-07T04:15:53.932Z,65.34
2017-08-07T04:18:23.486Z,64.66
2017-08-07T04:20:53.030Z,64.31
2017-08-07T04:23:22.561Z,64.19
2017-08-07T04:25:52.116Z,63.86
2017-08-07T04:28:21.657Z,63.86
2017-08-07T04:30:51.217Z,64.15
2017-08-07T04:33:20.712Z,64.42
2017-08-07T04:35:51.018Z,64.78
2017-08-07T04:38:20.566Z,64.33
2017-08-07T04:40:50.209Z,64.16
2017-08-07T04:43:19.765Z,64.06
2017-08-07T04:45:49.322Z,63.36
2017-08-07T04:48:18.865Z,62.97
2017-08-07T04:50:56.140Z,62.91
2017-08-07T04:53:46.565Z,61.49
2017-08-07T04:56:18.614Z,61.32
2017-08-07T04:58:48.225Z,61.60
2017-08-07T05:01:19.387Z,60.85
2017-08-07T05:03:49.502Z,60.66
2017-08-07T05:06:19.058Z,60.14
2017-08-07T05:08:48.595Z,58.96
2017-08-07T05:11:18.906Z,58.24
2017-08-07T05:13:48.475Z,57.46
2017-08-07T05:16:18.030Z,56.53
2017-08-07T05:18:48.330Z,56.10
2017-08-07T05:21:17.859Z,56.24
2017-08-07T05:23:47.419Z,55.91
2017-08-07T05:26:16.945Z,55.59
2017-08-07T05:28:46.490Z,54.22
2017-08-07T05:31:16.815Z,53.70
2017-08-07T05:33:46.776Z,54.49
2017-08-07T05:36:20.759Z,53.73
2017-08-07T05:38:50.480Z,53.75
2017-08-07T05:41:20.059Z,52.72
2017-08-07T05:43:49.602Z,52.62
2017-08-07T05:46:19.148Z,52.64
2017-08-07T05:48:48.762Z,52.02
2017-08-07T05:51:18.288Z,50.84
2017-08-07T05:53:48.646Z,50.55
2017-08-07T05:56:18.177Z,49.94
2017-08-07T05:58:47.777Z,50.12
2017-08-07T06:01:17.323Z,49.47
2017-08-07T06:03:47.654Z,48.69
2017-08-07T06:06:17.958Z,49.21
2017-08-07T06:08:47.519Z,48.55
2017-08-07T06:11:17.066Z,48.15
2017-08-07T06:13:46.603Z,48.46
2017-08-07T06:16:16.917Z,47.92
2017-08-07T06:18:47.246Z,47.23
2017-08-07T06:21:17.571Z,47.10
2017-08-07T06:23:48.107Z,46.93
2017-08-07T06:26:18.436Z,46.17
2017-08-07T06:28:47.979Z,45.23
2017-08-07T06:31:17.731Z,45.23
2017-08-07T06:33:47.297Z,45.40
2017-08-07T06:36:16.864Z,45.23
2017-08-07T06:38:47.139Z,44.77
2017-08-07T06:41:16.693Z,44.23
2017-08-07T06:43:47.046Z,43.39
2017-08-07T06:46:16.597Z,43.60
2017-08-07T06:48:46.135Z,43.05
2017-08-07T06:51:16.440Z,43.27
2017-08-07T06:53:45.988Z,43.00
2017-08-07T06:56:15.603Z,42.75
2017-08-07T06:58:45.157Z,42.21
2017-08-07T07:01:15.745Z,42.42
2017-08-07T07:03:46.729Z,41.94
2017-08-07T07:06:16.299Z,42.24
2017-08-07T07:08:45.840Z,42.02
2017-08-07T07:11:16.174Z,41.55
2017-08-07T07:13:46.481Z,41.29
2017-08-07T07:16:16.052Z,41.23
2017-08-07T07:18:45.658Z,40.87
2017-08-07T07:21:15.245Z,41.22
2017-08-07T07:23:44.821Z,40.70
2017-08-07T07:26:14.392Z,40.15
2017-08-07T07:28:44.654Z,40.00
2017-08-07T07:31:14.242Z,39.19
2017-08-07T07:33:43.802Z,39.31
2017-08-07T07:36:13.344Z,39.41
2017-08-07T07:38:42.897Z,38.54
2017-08-07T07:41:13.206Z,38.47
2017-08-07T07:43:42.761Z,38.96
2017-08-07T07:46:12.288Z,37.62
2017-08-07T07:48:41.850Z,37.79
2017-08-07T07:51:11.417Z,37.23
2017-08-07T07:53:40.966Z,37.39
2017-08-07T07:56:10.570Z,37.03
2017-08-07T07:58:40.859Z,37.85
2017-08-07T08:01:10.410Z,37.67
2017-08-07T08:03:39.927Z,38.42
2017-08-07T08:06:09.473Z,36.83
2017-08-07T08:08:39.062Z,36.93
2017-08-07T08:11:08.586Z,36.04
2017-08-07T08:13:38.172Z,35.81
2017-08-07T08:16:07.823Z,35.66
2017-08-07T08:18:37.392Z,35.34
2017-08-07T08:21:06.957Z,35.37
2017-08-07T08:23:37.306Z,35.57
2017-08-07T08:26:06.887Z,35.06
2017-08-07T08:28:36.999Z,33.61
2017-08-07T08:31:07.325Z,33.42
2017-08-07T08:33:37.691Z,30.58
2017-08-07T08:36:07.246Z,31.15
2017-08-07T08:38:36.764Z,31.11
2017-08-07T08:41:07.108Z,31.39
2017-08-07T08:43:36.631Z,31.63
2017-08-07T08:46:06.186Z,31.40
2017-08-07T08:48:35.735Z,30.37
2017-08-07T08:51:05.241Z,29.75
2017-08-07T08:53:34.877Z,29.98
2017-08-07T08:56:05.082Z,29.48
2017-08-07T08:58:34.603Z,30.71
2017-08-07T09:01:04.209Z,30.63
2017-08-07T09:03:33.739Z,30.52
2017-08-07T09:06:02.952Z,29.55
2017-08-07T09:08:32.538Z,29.53
2017-08-07T09:11:02.076Z,29.85
2017-08-07T09:13:32.405Z,27.99
2017-08-07T09:16:02.695Z,26.85
2017-08-07T09:18:32.446Z,27.97
2017-08-07T09:21:02.731Z,27.33
2017-08-07T09:23:32.394Z,27.56
2017-08-07T09:26:01.919Z,27.29
2017-08-07T09:28:31.481Z,26.64
2017-08-07T09:31:01.901Z,26.70
2017-08-07T09:33:32.219Z,28.01
2017-08-07T09:36:01.784Z,27.27
2017-08-07T09:38:31.347Z,27.14
2017-08-07T09:41:01.713Z,26.74
2017-08-07T09:43:31.264Z,25.66
2017-08-07T09:46:00.830Z,25.99
2017-08-07T09:48:29.698Z,26.95
2017-08-07T09:50:59.242Z,25.33
2017-08-07T09:53:28.786Z,26.39
2017-08-07T09:55:59.117Z,24.57
2017-08-07T09:58:29.424Z,24.38
2017-08-07T10:00:59.626Z,24.60
2017-08-07T10:03:29.159Z,25.41
2017-08-07T10:05:58.722Z,25.94
2017-08-07T10:08:28.252Z,26.62
2017-08-07T10:10:57.805Z,25.95
2017-08-07T10:13:27.366Z,25.77
2017-08-07T10:15:56.901Z,24.96
2017-08-07T10:18:27.243Z,24.49
2017-08-07T10:20:56.772Z,26.33
2017-08-07T10:23:26.339Z,25.63
2017-08-07T10:25:56.685Z,23.80
2017-08-07T10:28:26.260Z,25.45
2017-08-07T10:30:55.836Z,27.72
2017-08-07T10:33:25.447Z,24.21
2017-08-07T10:35:55.023Z,24.56
2017-08-07T10:38:24.902Z,26.72
2017-08-07T10:40:54.189Z,27.10
2017-08-07T10:43:23.730Z,26.32
2017-08-07T10:45:54.139Z,25.46
2017-08-07T10:48:23.716Z,24.04
2017-08-07T10:50:53.261Z,25.28
2017-08-07T10:53:23.537Z,26.44
2017-08-07T10:55:53.090Z,26.43
2017-08-07T10:58:23.387Z,26.45
2017-08-07T11:00:52.928Z,26.95
2017-08-07T11:03:23.235Z,27.59
2017-08-07T11:05:53.572Z,26.28
2017-08-07T11:08:23.847Z,26.91
2017-08-07T11:10:53.628Z,26.55
2017-08-07T11:13:23.216Z,26.39
2017-08-07T11:15:53.583Z,24.92
2017-08-07T11:18:23.167Z,25.14
2017-08-07T11:20:52.733Z,24.79
2017-08-07T11:23:22.282Z,24.43
2017-08-07T11:25:51.859Z,24.71
2017-08-07T11:28:22.308Z,26.34
2017-08-07T11:30:52.633Z,25.23
2017-08-07T11:33:22.155Z,26.45
2017-08-07T11:35:51.719Z,26.55
2017-08-07T11:38:21.291Z,26.01
2017-08-07T11:40:50.819Z,25.39
2017-08-07T11:43:20.373Z,24.74
2017-08-07T11:45:49.909Z,23.58
2017-08-07T11:48:19.459Z,23.80
2017-08-07T11:50:49.785Z,21.79
2017-08-07T11:53:19.395Z,21.84
2017-08-07T11:55:48.944Z,19.78
2017-08-07T11:58:18.484Z,17.83
2017-08-07T12:00:48.038Z,16.62
2017-08-07T12:03:17.857Z,14.01
2017-08-07T12:05:48.136Z,12.83
2017-08-07T12:08:18.730Z,11.45
2017-08-07T12:10:48.280Z,10.47
2017-08-07T12:13:17.820Z,10.28
2017-08-07T12:15:47.406Z,9.96
2017-08-07T12:18:16.952Z,8.66
2017-08-07T12:20:47.123Z,6.77
2017-08-07T12:23:16.673Z,6.29
2017-08-07T12:25:46.207Z,5.92
2017-08-07T12:28:15.769Z,5.59
2017-08-07T12:30:45.307Z,4.79
2017-08-07T12:33:14.838Z,4.38
2017-08-07T12:35:44.384Z,4.53
2017-08-07T12:38:14.694Z,4.71
2017-08-07T12:40:44.242Z,5.94
2017-08-07T12:43:13.826Z,6.16
2017-08-07T12:45:43.377Z,4.75
2017-08-07T12:48:12.890Z,4.57
2017-08-07T12:50:42.441Z,4.13
2017-08-07T12:53:11.975Z,4.58
2017-08-07T12:55:41.587Z,4.70
2017-08-07T12:58:11.108Z,4.97
2017-08-07T13:00:40.628Z,4.51
2017-08-07T13:03:10.176Z,3.90
2017-08-07T13:05:40.482Z,4.22
2017-08-07T13:08:10.270Z,4.20
2017-08-07T13:10:39.801Z,3.70
2017-08-07T13:13:09.337Z,3.55
2017-08-07T13:15:38.903Z,3.07
2017-08-07T13:18:08.460Z,3.36
2017-08-07T13:20:38.029Z,3.29
2017-08-07T13:23:08.321Z,3.45
2017-08-07T13:25:37.874Z,3.69
2017-08-07T13:28:08.182Z,3.59
2017-08-07T13:30:37.377Z,3.59
2017-08-07T13:33:06.545Z,2.97
2017-08-07T13:35:36.106Z,2.60
2017-08-07T13:38:06.431Z,2.90
2017-08-07T13:40:36.741Z,2.95
2017-08-07T13:43:07.043Z,3.38
2017-08-07T13:45:36.628Z,3.54
2017-08-07T13:48:06.283Z,3.90
2017-08-07T13:50:36.614Z,3.38
2017-08-07T13:53:06.171Z,2.98
2017-08-07T13:55:35.722Z,2.58
2017-08-07T13:58:06.058Z,2.25
2017-08-07T14:00:36.333Z,2.48
2017-08-07T14:03:05.288Z,2.43
2017-08-07T14:05:34.825Z,1.72
2017-08-07T14:08:04.053Z,1.59
2017-08-07T14:10:33.618Z,2.62
2017-08-07T14:13:03.202Z,3.30
2017-08-07T14:15:32.746Z,3.37
2017-08-07T14:18:02.322Z,2.77
2017-08-07T14:20:31.897Z,2.29
2017-08-07T14:23:01.435Z,2.28
2017-08-07T14:25:31.002Z,2.14
2017-08-07T14:28:00.538Z,1.85
2017-08-07T14:30:30.876Z,1.79
2017-08-07T14:33:00.440Z,1.88
2017-08-07T14:35:29.965Z,1.42
2017-08-07T14:38:00.307Z,1.05
2017-08-07T14:40:29.829Z,1.38
2017-08-07T14:42:59.369Z,1.74
2017-08-07T14:45:28.909Z,2.16
2017-08-07T14:47:59.286Z,1.70
2017-08-07T14:50:28.818Z,1.72
2017-08-07T14:52:58.352Z,1.47
2017-08-07T14:55:28.675Z,2.09
2017-08-07T14:57:59.007Z,1.32
2017-08-07T15:00:29.045Z,1.52
2017-08-07T15:02:58.548Z,1.43
2017-08-07T15:05:28.127Z,1.34
2017-08-07T15:07:58.422Z,1.65
2017-08-07T15:10:27.999Z,1.28
2017-08-07T15:12:57.550Z,2.05
2017-08-07T15:15:27.082Z,2.49
2017-08-07T15:17:56.701Z,2.81
2017-08-07T15:20:26.333Z,2.14
2017-08-07T15:22:55.898Z,2.43
2017-08-07T15:25:26.244Z,2.58
2017-08-07T15:27:55.789Z,2.62
2017-08-07T15:30:25.370Z,2.87
2017-08-07T15:32:54.949Z,2.22
2017-08-07T15:35:25.436Z,2.55
2017-08-07T15:37:55.016Z,3.03
2017-08-07T15:40:24.627Z,3.34
2017-08-07T15:42:55.145Z,2.67
2017-08-07T15:45:24.679Z,2.53
2017-08-07T15:47:54.296Z,2.24
2017-08-07T15:50:23.827Z,2.68
2017-08-07T15:52:53.387Z,2.97
2017-08-07T15:55:22.927Z,2.59
2017-08-07T15:57:52.480Z,2.84
2017-08-07T16:00:22.059Z,3.65
2017-08-07T16:02:52.349Z,3.35
2017-08-07T16:05:21.927Z,3.26
2017-08-07T16:07:51.571Z,3.21
2017-08-07T16:10:21.244Z,2.49
2017-08-07T16:12:50.783Z,2.92
2017-08-07T16:15:21.258Z,3.83
2017-08-07T16:17:50.791Z,3.70
2017-08-07T16:20:23.292Z,4.02
2017-08-07T16:22:52.840Z,4.96
2017-08-07T16:25:24.683Z,4.29
2017-08-07T16:27:54.322Z,4.20
2017-08-07T16:30:32.241Z,3.63
2017-08-07T16:33:01.824Z,4.08
2017-08-07T16:35:32.153Z,4.04
2017-08-07T16:38:01.755Z,4.26
2017-08-07T16:40:32.078Z,4.57
2017-08-07T16:43:02.406Z,4.44
2017-08-07T16:45:32.739Z,4.41
2017-08-07T16:48:03.026Z,4.71
2017-08-07T16:50:32.579Z,4.71
2017-08-07T16:53:02.149Z,4.07
2017-08-07T16:55:31.773Z,4.30
2017-08-07T16:58:02.194Z,4.73
2017-08-07T17:00:31.710Z,5.28
2017-08-07T17:03:02.019Z,5.58
2017-08-07T17:05:31.555Z,5.63
2017-08-07T17:08:01.090Z,5.33
2017-08-07T17:10:30.666Z,5.31
2017-08-07T17:13:00.229Z,5.36
2017-08-07T17:15:29.846Z,5.51
2017-08-07T17:18:00.442Z,6.18
2017-08-07T17:20:30.043Z,6.47
2017-08-07T17:22:59.599Z,6.57
2017-08-07T17:25:29.714Z,7.45
2017-08-07T17:27:59.273Z,8.04
2017-08-07T17:30:28.836Z,7.92
2017-08-07T17:32:58.545Z,7.96
2017-08-07T17:35:28.121Z,7.76
2017-08-07T17:38:00.018Z,7.79
2017-08-07T17:40:29.555Z,8.19
2017-08-07T17:42:59.095Z,8.44
2017-08-07T17:45:28.669Z,8.69
2017-08-07T17:47:58.262Z,9.06
2017-08-07T17:50:28.555Z,9.30
2017-08-07T17:52:58.129Z,11.02
2017-08-07T17:55:27.670Z,13.69
2017-08-07T17:57:57.215Z,15.75
2017-08-07T18:00:26.798Z,17.04
2017-08-07T18:02:57.141Z,19.47
2017-08-07T18:05:26.725Z,19.57
2017-08-07T18:07:56.291Z,21.35
2017-08-07T18:10:25.859Z,21.62
2017-08-07T18:12:55.420Z,22.38
2017-08-07T18:15:24.994Z,22.78
2017-08-07T18:17:54.542Z,23.33
2017-08-07T18:20:24.381Z,24.21
2017-08-07T18:22:54.086Z,24.72
2017-08-07T18:25:24.612Z,27.14
2017-08-07T18:27:54.154Z,26.39
2017-08-07T18:30:23.741Z,27.31
2017-08-07T18:32:54.051Z,26.74
2017-08-07T18:35:23.797Z,28.12
2017-08-07T18:37:53.368Z,28.98
2017-08-07T18:40:22.988Z,29.41
2017-08-07T18:42:53.331Z,29.63
2017-08-07T18:45:22.909Z,30.42
2017-08-07T18:47:52.444Z,30.71
2017-08-07T18:50:22.026Z,31.21
2017-08-07T18:52:51.555Z,31.59
2017-08-07T18:55:21.142Z,32.09
2017-08-07T18:57:50.673Z,32.30
2017-08-07T19:00:20.220Z,32.82
2017-08-07T19:02:49.457Z,33.63
2017-08-07T19:05:19.005Z,33.85
2017-08-07T19:07:48.800Z,34.38
2017-08-07T19:10:18.329Z,34.90
2017-08-07T19:12:47.941Z,34.91
2017-08-07T19:15:17.540Z,36.67
2017-08-07T19:17:47.066Z,37.40
2017-08-07T19:20:16.655Z,35.78
2017-08-07T19:22:46.182Z,35.78
2017-08-07T19:25:16.238Z,36.83
2017-08-07T19:27:45.851Z,36.01
2017-08-07T19:30:16.326Z,36.40
2017-08-07T19:32:45.868Z,36.56
2017-08-07T19:35:15.976Z,36.65
2017-08-07T19:37:45.523Z,37.43
2017-08-07T19:40:15.826Z,37.72
2017-08-07T19:42:45.567Z,37.84
2017-08-07T19:45:15.846Z,37.93
2017-08-07T19:47:45.575Z,38.60
2017-08-07T19:50:15.104Z,38.40
2017-08-07T19:52:44.666Z,38.84
2017-08-07T19:55:14.773Z,39.72
2017-08-07T19:57:44.314Z,40.11
2017-08-07T20:00:13.629Z,39.75
2017-08-07T20:02:43.243Z,39.01
2017-08-07T20:05:12.785Z,39.43
2017-08-07T20:07:42.346Z,40.60
2017-08-07T20:10:12.716Z,40.52
2017-08-07T20:12:42.489Z,41.84
2017-08-07T20:15:12.053Z,42.03
2017-08-07T20:17:41.594Z,43.32
2017-08-07T20:20:11.132Z,43.01
2017-08-07T20:22:40.707Z,43.35
2017-08-07T20:25:11.011Z,44.72
2017-08-07T20:27:40.589Z,44.51
2017-08-07T20:30:09.794Z,45.64
2017-08-07T20:32:39.323Z,44.43
2017-08-07T20:35:08.913Z,45.11
2017-08-07T20:37:38.497Z,45.41
2017-08-07T20:40:08.078Z,45.37
2017-08-07T20:42:37.643Z,46.24
2017-08-07T20:45:07.211Z,47.10
2017-08-07T20:47:36.748Z,46.88
2017-08-07T20:50:06.285Z,47.73
2017-08-07T20:52:35.815Z,47.83
2017-08-07T20:55:06.117Z,47.84
2017-08-07T20:57:35.662Z,48.45
2017-08-07T21:00:04.520Z,48.20
2017-08-07T21:02:34.901Z,48.87
2017-08-07T21:05:04.139Z,49.61
2017-08-07T21:07:33.648Z,49.97
2017-08-07T21:10:02.944Z,50.44
2017-08-07T21:12:32.501Z,50.72
2017-08-07T21:15:02.115Z,51.17
2017-08-07T21:17:31.677Z,51.67
2017-08-07T21:20:01.995Z,51.61
2017-08-07T21:22:31.253Z,51.67
2017-08-07T21:25:00.807Z,51.26
2017-08-07T21:27:30.381Z,50.30
2017-08-07T21:29:59.921Z,51.32
2017-08-07T21:32:30.285Z,51.58
2017-08-07T21:34:59.849Z,50.94
2017-08-07T21:37:30.190Z,51.19
2017-08-07T21:40:00.499Z,51.99
2017-08-07T21:42:30.032Z,52.48
2017-08-07T21:44:59.552Z,53.18
2017-08-07T21:47:29.108Z,52.81
2017-08-07T21:49:58.626Z,52.77
2017-08-07T21:52:28.961Z,52.73
2017-08-07T21:54:59.306Z,53.08
2017-08-07T21:57:28.864Z,54.00
2017-08-07T21:59:58.445Z,54.29
2017-08-07T22:02:27.976Z,54.75
2017-08-07T22:04:57.557Z,54.65
2017-08-07T22:07:27.109Z,55.30
2017-08-07T22:09:56.650Z,55.42
2017-08-07T22:12:26.247Z,54.90
2017-08-07T22:14:55.799Z,54.75
2017-08-07T22:17:25.388Z,54.57
2017-08-07T22:19:54.945Z,55.22
2017-08-07T22:22:24.165Z,55.43
2017-08-07T22:24:54.519Z,55.48
2017-08-07T22:27:24.048Z,55.34
2017-08-07T22:29:53.686Z,56.03
2017-08-07T22:32:23.057Z,55.94
2017-08-07T22:34:52.593Z,55.96
2017-08-07T22:37:22.130Z,56.36
2017-08-07T22:39:51.648Z,56.77
2017-08-07T22:42:21.174Z,56.87
2017-08-07T22:44:50.873Z,56.51
2017-08-07T22:47:20.386Z,56.83
2017-08-07T22:49:49.982Z,56.46
2017-08-07T22:52:19.521Z,56.63
2017-08-07T22:54:49.075Z,56.96
2017-08-07T22:57:18.743Z,56.79
2017-08-07T22:59:48.311Z,56.08
2017-08-07T23:02:17.881Z,57.32
2017-08-07T23:04:48.197Z,56.25
2017-08-07T23:07:17.796Z,55.54
2017-08-07T23:09:47.336Z,55.12
2017-08-07T23:12:16.891Z,55.55
2017-08-07T23:14:46.412Z,56.25
2017-08-07T23:17:15.952Z,56.40
2017-08-07T23:19:46.249Z,56.97
2017-08-07T23:22:15.855Z,55.98
2017-08-07T23:24:45.399Z,56.85
2017-08-07T23:27:14.931Z,57.78
2017-08-07T23:29:44.484Z,56.65
2017-08-07T23:32:14.019Z,56.80
2017-08-07T23:34:43.570Z,57.79
2017-08-07T23:37:13.130Z,57.70
2017-08-07T23:39:42.677Z,57.54
2017-08-07T23:42:12.559Z,58.15
2017-08-07T23:44:42.068Z,57.79
2017-08-07T23:47:11.589Z,57.52
2017-08-07T23:49:41.127Z,57.71
2017-08-07T23:52:10.676Z,57.48
2017-08-07T23:54:40.234Z,58.95
2017-08-07T23:57:09.765Z,58.77
2017-08-07T23:59:40.109Z,57.78
